Keene, Texas
Current Conditions -  °F | °C
As of 6:55 AM on Saturday 25 Oct 2014 (Local Time) from KCPT Reporting Station
Clear Clear  
Wind Chill: 61°   Ceiling: Unl
Heat Index: 61°   Visibility: 10mi
Dew Point: 61°   Wind: 6mph
Humidity: 100%   Direction: 160°SSE
Pressure: 30.13"   Gusts: NA
Location:  32.4°N, 97.32°W
Report Text: KCPT 251155Z AUTO 16005KT 10SM CLR 16/16 A3013 RMK AO2
Loading
Personal Weather Stations






























Interactive Weather Map
Tropical Storm Tracking
New forecast layout! Learn more

10-Day Weather Forecast

Advertisements
Track Severe Weather on mobile